createdAt,value
2022-12-29T00:02:14.365Z,13.93
2022-12-29T00:04:46.304Z,12.93
2022-12-29T00:07:18.946Z,15.35
2022-12-29T00:09:50.963Z,12.48
2022-12-29T00:12:22.979Z,13.10
2022-12-29T00:15:13.462Z,12.68
2022-12-29T00:17:45.520Z,13.15
2022-12-29T00:20:36.434Z,12.73
2022-12-29T00:26:31.303Z,11.65
2022-12-29T00:29:22.339Z,12.52
2022-12-29T00:32:12.977Z,11.45
2022-12-29T00:35:03.579Z,13.88
2022-12-29T00:38:00.390Z,12.50
2022-12-29T00:40:51.161Z,10.80
2022-12-29T00:43:41.711Z,10.73
2022-12-29T00:46:19.666Z,12.20
2022-12-29T00:49:11.039Z,11.55
2022-12-29T00:51:43.050Z,10.93
2022-12-29T00:54:16.495Z,9.25
2022-12-29T00:56:51.498Z,12.68
2022-12-29T00:59:25.329Z,10.43
2022-12-29T01:01:58.312Z,10.50
2022-12-29T01:04:30.484Z,10.38
2022-12-29T01:07:02.717Z,11.80
2022-12-29T01:09:53.138Z,9.05
2022-12-29T01:12:43.510Z,11.43
2022-12-29T01:15:16.230Z,10.57
2022-12-29T01:17:48.431Z,11.68
2022-12-29T01:20:20.423Z,10.52
2022-12-29T01:22:52.377Z,9.63
2022-12-29T01:25:24.881Z,10.85
2022-12-29T01:27:56.807Z,11.68
2022-12-29T01:30:28.837Z,8.35
2022-12-29T01:33:00.675Z,10.55
2022-12-29T01:35:32.840Z,10.13
2022-12-29T01:38:04.761Z,9.02
2022-12-29T01:40:45.000Z,10.75
2022-12-29T01:43:16.924Z,11.00
2022-12-29T01:45:55.929Z,10.85
2022-12-29T01:48:28.040Z,12.27
2022-12-29T01:50:59.995Z,14.65
2022-12-29T01:53:34.979Z,16.58
2022-12-29T01:56:13.170Z,26.67
2022-12-29T01:58:48.548Z,24.25
2022-12-29T02:01:21.342Z,26.30
2022-12-29T02:03:53.649Z,28.42
2022-12-29T02:06:41.473Z,41.58
2022-12-29T02:09:13.360Z,31.90
2022-12-29T02:11:47.145Z,35.47
2022-12-29T02:14:19.459Z,37.65
2022-12-29T02:17:16.043Z,33.65
2022-12-29T02:20:18.000Z,24.25
2022-12-29T02:23:03.393Z,18.23
2022-12-29T02:25:38.209Z,17.38
2022-12-29T02:28:28.764Z,15.70
2022-12-29T02:31:55.207Z,18.30
2022-12-29T02:34:48.937Z,14.98
2022-12-29T02:37:28.447Z,14.32
2022-12-29T02:40:21.742Z,15.05
2022-12-29T02:43:29.355Z,15.93
2022-12-29T02:46:17.118Z,14.48
2022-12-29T02:48:59.042Z,12.57
2022-12-29T02:54:32.132Z,12.88
2022-12-29T02:57:04.616Z,15.68
2022-12-29T02:59:37.144Z,14.43
2022-12-29T03:02:33.642Z,14.45
2022-12-29T03:05:16.992Z,15.93
2022-12-29T03:08:12.804Z,15.52
2022-12-29T03:10:59.804Z,15.60
2022-12-29T03:14:04.899Z,13.85
2022-12-29T03:16:46.644Z,12.68
2022-12-29T03:19:26.424Z,13.95
2022-12-29T03:22:32.032Z,14.25
2022-12-29T03:25:22.292Z,13.75
2022-12-29T03:28:02.168Z,19.30
2022-12-29T03:30:37.133Z,14.73
2022-12-29T03:33:13.602Z,14.50
2022-12-29T03:35:50.397Z,19.52
2022-12-29T03:38:51.607Z,14.73
2022-12-29T03:41:27.967Z,16.02
2022-12-29T03:43:59.918Z,15.50
2022-12-29T03:46:31.861Z,16.05
2022-12-29T03:49:04.082Z,14.95
2022-12-29T03:51:36.079Z,16.52
2022-12-29T03:54:08.059Z,12.50
2022-12-29T03:56:40.074Z,14.18
2022-12-29T03:59:12.008Z,19.73
2022-12-29T04:01:44.372Z,16.88
2022-12-29T04:04:16.460Z,17.85
2022-12-29T04:06:49.668Z,18.23
2022-12-29T04:09:21.659Z,14.82
2022-12-29T04:11:53.669Z,16.15
2022-12-29T04:14:25.686Z,13.57
2022-12-29T04:16:57.616Z,20.50
2022-12-29T04:19:29.564Z,16.40
2022-12-29T04:22:01.543Z,15.90
2022-12-29T04:24:33.532Z,20.23
2022-12-29T04:27:05.530Z,18.02
2022-12-29T04:29:37.441Z,20.73
2022-12-29T04:32:09.298Z,15.82
2022-12-29T04:34:41.142Z,15.30
2022-12-29T04:37:13.088Z,22.20
2022-12-29T04:39:44.931Z,15.88
2022-12-29T04:42:16.797Z,19.48
2022-12-29T04:44:50.252Z,15.63
2022-12-29T04:47:22.151Z,15.75
2022-12-29T04:49:54.019Z,18.45
2022-12-29T04:52:25.888Z,11.50
2022-12-29T04:54:57.755Z,15.50
2022-12-29T04:57:29.681Z,16.90
2022-12-29T05:00:01.549Z,16.92
2022-12-29T05:02:33.532Z,20.05
2022-12-29T05:05:06.632Z,16.80
2022-12-29T05:07:38.571Z,17.73
2022-12-29T05:10:10.734Z,17.17
2022-12-29T05:12:42.858Z,17.98
2022-12-29T05:15:14.825Z,16.08
2022-12-29T05:17:46.843Z,16.17
2022-12-29T05:20:18.885Z,15.95
2022-12-29T05:22:50.889Z,14.75
2022-12-29T05:25:22.875Z,15.18
2022-12-29T05:27:54.827Z,14.60
2022-12-29T05:30:26.783Z,13.18
2022-12-29T05:32:58.696Z,13.35
2022-12-29T05:35:30.775Z,13.88
2022-12-29T05:38:02.696Z,12.18
2022-12-29T05:40:34.742Z,13.52
2022-12-29T05:43:06.685Z,16.98
2022-12-29T05:45:39.713Z,12.93
2022-12-29T05:48:11.568Z,14.00
2022-12-29T05:50:43.463Z,17.02
2022-12-29T05:53:15.436Z,13.20
2022-12-29T05:55:50.860Z,15.57
2022-12-29T05:58:22.769Z,14.30
2022-12-29T06:00:54.723Z,14.70
2022-12-29T06:03:26.759Z,13.55
2022-12-29T06:05:58.828Z,11.45
2022-12-29T06:08:30.716Z,14.30
2022-12-29T06:11:02.543Z,15.10
2022-12-29T06:13:34.489Z,17.75
2022-12-29T06:16:06.877Z,12.68
2022-12-29T06:18:38.753Z,11.20
2022-12-29T06:21:10.657Z,11.43
2022-12-29T06:23:42.509Z,11.60
2022-12-29T06:26:14.358Z,12.80
2022-12-29T06:28:46.239Z,13.52
2022-12-29T06:31:18.121Z,11.35
2022-12-29T06:33:50.402Z,12.70
2022-12-29T06:36:22.314Z,12.93
2022-12-29T06:38:54.476Z,14.82
2022-12-29T06:41:32.015Z,13.80
2022-12-29T06:44:04.411Z,12.30
2022-12-29T06:46:36.265Z,15.77
2022-12-29T06:49:08.143Z,16.65
2022-12-29T06:51:40.298Z,12.80
2022-12-29T06:54:12.240Z,19.48
2022-12-29T06:56:44.239Z,12.77
2022-12-29T06:59:16.176Z,14.13
2022-12-29T07:01:49.630Z,14.88
2022-12-29T07:04:21.521Z,15.60
2022-12-29T07:06:53.398Z,11.60
2022-12-29T07:09:25.248Z,9.93
2022-12-29T07:11:57.149Z,10.00
2022-12-29T07:14:29.120Z,10.95
2022-12-29T07:17:01.080Z,13.73
2022-12-29T07:19:36.072Z,10.80
2022-12-29T07:22:07.976Z,11.25
2022-12-29T07:24:39.830Z,10.70
2022-12-29T07:27:11.915Z,10.85
2022-12-29T07:29:43.783Z,10.07
2022-12-29T07:32:15.660Z,13.73
2022-12-29T07:34:48.663Z,10.38
2022-12-29T07:37:21.198Z,11.13
2022-12-29T07:39:53.155Z,12.07
2022-12-29T07:42:25.040Z,11.38
2022-12-29T07:44:57.146Z,12.27
2022-12-29T07:47:29.102Z,9.93
2022-12-29T07:50:00.986Z,11.35
2022-12-29T07:52:32.923Z,13.75
2022-12-29T07:55:05.537Z,12.55
2022-12-29T07:57:37.487Z,13.43
2022-12-29T08:00:11.210Z,10.77
2022-12-29T08:02:43.257Z,10.80
2022-12-29T08:05:15.324Z,18.27
2022-12-29T08:07:47.787Z,10.82
2022-12-29T08:10:20.318Z,13.27
2022-12-29T08:12:52.177Z,11.38
2022-12-29T08:15:30.469Z,9.88
2022-12-29T08:18:04.725Z,13.65
2022-12-29T08:20:36.640Z,10.30
2022-12-29T08:23:08.553Z,11.25
2022-12-29T08:25:40.396Z,10.45
2022-12-29T08:28:12.365Z,9.98
2022-12-29T08:30:44.378Z,11.07
2022-12-29T08:33:16.583Z,14.45
2022-12-29T08:35:48.587Z,10.80
2022-12-29T08:38:20.551Z,11.73
2022-12-29T08:40:52.937Z,11.63
2022-12-29T08:43:25.571Z,10.95
2022-12-29T08:45:59.434Z,11.25
2022-12-29T08:48:31.327Z,16.58
2022-12-29T08:51:03.248Z,12.93
2022-12-29T08:53:36.204Z,15.00
2022-12-29T08:56:10.196Z,9.68
2022-12-29T08:58:42.097Z,11.48
2022-12-29T09:01:14.074Z,10.25
2022-12-29T09:06:40.704Z,9.57
2022-12-29T09:09:13.399Z,9.25
2022-12-29T09:11:45.425Z,10.32
2022-12-29T09:14:17.546Z,9.55
2022-12-29T09:17:10.392Z,11.18
2022-12-29T09:19:43.046Z,9.63
2022-12-29T09:22:14.990Z,10.20
2022-12-29T09:24:47.093Z,14.65
2022-12-29T09:27:19.029Z,8.95
2022-12-29T09:29:51.321Z,8.65
2022-12-29T09:32:23.739Z,7.50
2022-12-29T09:34:56.803Z,10.82
2022-12-29T09:37:29.024Z,16.55
2022-12-29T09:40:01.003Z,9.68
2022-12-29T09:42:40.673Z,8.40
2022-12-29T09:45:20.260Z,10.48
2022-12-29T09:47:52.468Z,9.68
2022-12-29T09:50:30.136Z,7.25
2022-12-29T09:53:22.883Z,10.90
2022-12-29T09:56:00.110Z,8.75
2022-12-29T09:58:40.719Z,9.23
2022-12-29T10:01:29.874Z,8.57
2022-12-29T10:04:04.483Z,10.48
2022-12-29T10:07:27.417Z,12.55
2022-12-29T10:09:54.819Z,10.23
2022-12-29T10:12:44.918Z,16.85
2022-12-29T10:15:44.528Z,11.73
2022-12-29T10:18:42.787Z,10.93
2022-12-29T10:21:30.363Z,8.63
2022-12-29T10:24:07.822Z,9.25
2022-12-29T10:26:43.248Z,10.43
2022-12-29T10:29:22.967Z,10.02
2022-12-29T10:32:27.068Z,7.85
2022-12-29T10:35:23.950Z,11.02
2022-12-29T10:38:11.172Z,8.45
2022-12-29T10:41:19.660Z,9.57
2022-12-29T10:43:54.495Z,9.05
2022-12-29T10:46:34.560Z,11.30
2022-12-29T10:49:13.644Z,11.45
2022-12-29T10:51:53.300Z,10.02
2022-12-29T10:54:48.171Z,8.80
2022-12-29T10:57:34.259Z,8.40
2022-12-29T11:00:23.236Z,9.05
2022-12-29T11:02:58.100Z,7.38
2022-12-29T11:05:42.496Z,9.75
2022-12-29T11:08:20.324Z,7.53
2022-12-29T11:11:04.572Z,8.75
2022-12-29T11:13:49.619Z,9.98
2022-12-29T11:16:34.096Z,8.00
2022-12-29T11:19:06.585Z,9.27
2022-12-29T11:21:43.588Z,8.05
2022-12-29T11:24:24.164Z,8.68
2022-12-29T11:27:15.702Z,9.13
2022-12-29T11:29:48.139Z,14.15
2022-12-29T11:32:28.821Z,10.10
2022-12-29T11:35:02.256Z,12.30
2022-12-29T11:37:40.422Z,8.35
2022-12-29T11:40:22.495Z,15.32
2022-12-29T11:42:58.129Z,10.93
2022-12-29T11:45:48.145Z,10.00
2022-12-29T11:48:22.742Z,8.43
2022-12-29T11:51:00.773Z,9.50
2022-12-29T11:53:38.405Z,9.43
2022-12-29T11:56:14.609Z,14.95
2022-12-29T11:58:46.476Z,13.77
2022-12-29T12:01:25.369Z,8.73
2022-12-29T12:04:03.371Z,12.00
2022-12-29T12:06:45.355Z,16.40
2022-12-29T12:09:30.334Z,13.07
2022-12-29T12:12:04.671Z,16.73
2022-12-29T12:14:45.065Z,11.27
2022-12-29T12:17:39.632Z,11.10
2022-12-29T12:20:25.715Z,8.75
2022-12-29T12:23:20.192Z,11.30
2022-12-29T12:26:19.208Z,14.27
2022-12-29T12:29:20.496Z,11.02
2022-12-29T12:32:30.162Z,13.75
2022-12-29T12:35:03.273Z,13.25
2022-12-29T12:37:44.856Z,9.80
2022-12-29T12:40:47.164Z,9.25
2022-12-29T12:43:42.360Z,9.05
2022-12-29T12:46:32.521Z,11.05
2022-12-29T12:49:16.995Z,8.95
2022-12-29T12:52:05.390Z,10.95
2022-12-29T12:55:03.497Z,13.93
2022-12-29T12:57:55.259Z,13.93
2022-12-29T13:00:33.584Z,12.40
2022-12-29T13:03:27.516Z,11.82
2022-12-29T13:06:08.840Z,10.80
2022-12-29T13:08:43.646Z,10.07
2022-12-29T13:11:26.303Z,12.88
2022-12-29T13:14:01.283Z,12.15
2022-12-29T13:16:50.518Z,10.85
2022-12-29T13:19:34.207Z,13.15
2022-12-29T13:22:25.879Z,12.48
2022-12-29T13:25:00.626Z,12.70
2022-12-29T13:27:48.284Z,11.55
2022-12-29T13:31:00.013Z,11.40
2022-12-29T13:33:43.300Z,11.98
2022-12-29T13:36:27.240Z,10.82
2022-12-29T13:39:21.506Z,8.65
2022-12-29T13:41:56.113Z,10.63
2022-12-29T13:44:36.292Z,12.20
2022-12-29T13:49:51.426Z,9.38
2022-12-29T13:52:39.920Z,9.32
2022-12-29T13:55:37.104Z,15.40
2022-12-29T13:58:27.967Z,14.90
2022-12-29T14:03:57.795Z,16.20
2022-12-29T14:06:41.734Z,11.55
2022-12-29T14:09:41.589Z,15.38
2022-12-29T14:12:34.621Z,13.65
2022-12-29T14:15:12.476Z,13.55
2022-12-29T14:17:45.429Z,16.33
2022-12-29T14:20:22.693Z,13.93
2022-12-29T14:23:17.292Z,14.30
2022-12-29T14:25:58.663Z,14.65
2022-12-29T14:28:33.033Z,16.15
2022-12-29T14:31:26.106Z,14.93
2022-12-29T14:34:07.166Z,15.93
2022-12-29T14:36:43.002Z,13.18
2022-12-29T14:39:41.577Z,13.15
2022-12-29T14:42:23.895Z,10.73
2022-12-29T14:45:14.120Z,13.40
2022-12-29T14:47:51.738Z,11.05
2022-12-29T14:50:31.830Z,12.88
2022-12-29T14:53:09.708Z,12.57
2022-12-29T14:55:51.103Z,11.95
2022-12-29T14:58:39.260Z,14.30
2022-12-29T15:01:34.365Z,11.75
2022-12-29T15:04:22.312Z,10.18
2022-12-29T15:06:54.990Z,10.45
2022-12-29T15:09:32.529Z,22.40
2022-12-29T15:12:25.507Z,13.40
2022-12-29T15:15:00.037Z,15.05
2022-12-29T15:17:34.750Z,9.43
2022-12-29T15:20:29.584Z,11.32
2022-12-29T15:23:19.947Z,14.93
2022-12-29T15:25:57.366Z,12.85
2022-12-29T15:28:42.231Z,20.17
2022-12-29T15:31:18.717Z,14.27
2022-12-29T15:33:53.411Z,18.00
2022-12-29T15:36:28.293Z,14.15
2022-12-29T15:39:00.199Z,15.57
2022-12-29T15:42:05.381Z,27.10
2022-12-29T15:44:47.275Z,19.38
2022-12-29T15:47:27.329Z,15.35
2022-12-29T15:50:27.884Z,14.57
2022-12-29T15:53:00.757Z,12.10
2022-12-29T15:55:36.630Z,13.75
2022-12-29T15:58:29.644Z,16.60
2022-12-29T16:01:03.116Z,13.35
2022-12-29T16:03:38.366Z,12.60
2022-12-29T16:06:10.566Z,11.05
2022-12-29T16:08:42.533Z,13.20
2022-12-29T16:11:36.765Z,10.73
2022-12-29T16:14:33.673Z,12.60
2022-12-29T16:17:06.117Z,13.15
2022-12-29T16:19:42.300Z,10.88
2022-12-29T16:22:24.069Z,11.68
2022-12-29T16:25:05.131Z,18.42
2022-12-29T16:27:43.555Z,12.70
2022-12-29T16:30:33.654Z,10.25
2022-12-29T16:33:06.912Z,11.05
2022-12-29T16:35:44.912Z,10.65
2022-12-29T16:38:24.187Z,10.30
2022-12-29T16:40:57.142Z,13.07
2022-12-29T16:43:32.553Z,12.32
2022-12-29T16:46:19.437Z,12.50
2022-12-29T16:48:54.803Z,10.35
2022-12-29T16:51:36.603Z,11.48
2022-12-29T16:54:20.830Z,12.48
2022-12-29T16:56:53.698Z,15.38
2022-12-29T16:59:43.803Z,12.75
2022-12-29T17:02:20.723Z,13.75
2022-12-29T17:04:54.114Z,11.02
2022-12-29T17:07:29.087Z,11.88
2022-12-29T17:10:01.138Z,11.65
2022-12-29T17:12:35.815Z,12.18
2022-12-29T17:15:36.474Z,11.85
2022-12-29T17:18:13.902Z,11.68
2022-12-29T17:20:46.213Z,14.23
2022-12-29T17:23:24.472Z,17.65
2022-12-29T17:25:58.431Z,17.55
2022-12-29T17:28:32.595Z,13.45
2022-12-29T17:31:07.298Z,13.93
2022-12-29T17:33:42.894Z,14.77
2022-12-29T17:36:14.887Z,17.08
2022-12-29T17:38:47.323Z,17.63
2022-12-29T17:41:19.367Z,18.42
2022-12-29T17:43:51.320Z,14.75
2022-12-29T17:46:23.335Z,19.27
2022-12-29T17:48:55.755Z,13.88
2022-12-29T17:51:27.839Z,19.30
2022-12-29T17:53:59.974Z,15.48
2022-12-29T17:56:31.978Z,15.27
2022-12-29T17:59:03.949Z,15.40
2022-12-29T18:01:39.054Z,19.70
2022-12-29T18:04:16.960Z,15.48
2022-12-29T18:06:49.069Z,16.02
2022-12-29T18:09:22.975Z,16.73
2022-12-29T18:11:54.913Z,15.82
2022-12-29T18:14:26.854Z,19.45
2022-12-29T18:16:58.791Z,18.00
2022-12-29T18:19:35.919Z,16.50
2022-12-29T18:22:09.036Z,18.88
2022-12-29T18:24:40.913Z,17.80
2022-12-29T18:27:15.444Z,13.65
2022-12-29T18:29:47.472Z,19.73
2022-12-29T18:32:19.870Z,14.60
2022-12-29T18:34:51.869Z,16.40
2022-12-29T18:37:24.017Z,19.50
2022-12-29T18:39:57.559Z,15.63
2022-12-29T18:42:29.726Z,18.73
2022-12-29T18:45:01.664Z,19.52
2022-12-29T18:47:33.647Z,17.17
2022-12-29T18:50:06.006Z,21.50
2022-12-29T18:52:38.140Z,16.92
2022-12-29T18:55:36.125Z,15.23
2022-12-29T18:58:08.305Z,17.38
2022-12-29T19:00:40.850Z,18.33
2022-12-29T19:03:14.827Z,19.67
2022-12-29T19:05:49.310Z,18.90
2022-12-29T19:08:21.301Z,18.52
2022-12-29T19:10:53.562Z,17.00
2022-12-29T19:13:29.526Z,18.73
2022-12-29T19:16:02.062Z,16.85
2022-12-29T19:19:05.881Z,21.23
2022-12-29T19:21:25.816Z,19.80
2022-12-29T19:23:57.663Z,16.42
2022-12-29T19:26:32.523Z,16.63
2022-12-29T19:29:06.902Z,17.83
2022-12-29T19:31:39.525Z,20.27
2022-12-29T19:34:15.248Z,19.88
2022-12-29T19:36:47.163Z,18.40
2022-12-29T19:39:19.231Z,23.55
2022-12-29T19:41:51.083Z,19.48
2022-12-29T19:44:22.984Z,18.92
2022-12-29T19:46:54.887Z,19.17
2022-12-29T19:49:26.849Z,17.40
2022-12-29T19:51:59.071Z,16.95
2022-12-29T19:54:31.089Z,16.05
2022-12-29T19:57:03.029Z,20.13
2022-12-29T19:59:35.025Z,16.20
2022-12-29T20:02:07.515Z,18.15
2022-12-29T20:04:39.603Z,18.45
2022-12-29T20:07:17.267Z,19.90
2022-12-29T20:09:50.004Z,16.42
2022-12-29T20:12:27.354Z,17.27
2022-12-29T20:15:01.279Z,20.63
2022-12-29T20:18:10.619Z,17.33
2022-12-29T20:20:25.635Z,17.50
2022-12-29T20:22:58.123Z,18.13
2022-12-29T20:25:47.561Z,18.35
2022-12-29T20:28:19.772Z,18.23
2022-12-29T20:31:07.120Z,17.38
2022-12-29T20:33:39.052Z,15.32
2022-12-29T20:36:15.815Z,17.95
2022-12-29T20:38:51.800Z,17.48
2022-12-29T20:41:24.250Z,14.18
2022-12-29T20:43:56.264Z,15.05
2022-12-29T20:46:36.460Z,16.98
2022-12-29T20:49:11.388Z,15.65
2022-12-29T20:52:17.054Z,18.23
2022-12-29T20:54:40.031Z,19.77
2022-12-29T20:57:12.529Z,18.80
2022-12-29T20:59:44.535Z,16.15
2022-12-29T21:02:24.582Z,18.33
2022-12-29T21:05:22.828Z,21.25
2022-12-29T21:07:48.638Z,18.98
2022-12-29T21:10:21.940Z,17.45
2022-12-29T21:12:54.274Z,15.63
2022-12-29T21:15:26.487Z,16.58
2022-12-29T21:17:58.502Z,17.50
2022-12-29T21:20:32.382Z,21.92
2022-12-29T21:23:04.730Z,28.05
2022-12-29T21:25:39.653Z,41.20
2022-12-29T21:28:12.654Z,32.25
2022-12-29T21:30:44.814Z,28.92
2022-12-29T21:33:18.217Z,25.38
2022-12-29T21:35:50.146Z,24.27
2022-12-29T21:38:21.973Z,17.90
2022-12-29T21:40:53.876Z,18.35
2022-12-29T21:43:25.807Z,17.92
2022-12-29T21:45:57.733Z,17.98
2022-12-29T21:48:30.450Z,16.45
2022-12-29T21:51:30.597Z,16.08
2022-12-29T21:54:21.420Z,16.25
2022-12-29T21:56:53.351Z,16.17
2022-12-29T21:59:43.914Z,16.40
2022-12-29T22:02:52.783Z,17.10
2022-12-29T22:05:43.449Z,16.30
2022-12-29T22:08:34.216Z,18.75
2022-12-29T22:11:28.084Z,15.30
2022-12-29T22:14:01.736Z,17.13
2022-12-29T22:16:33.796Z,16.40
2022-12-29T22:19:05.843Z,20.33
2022-12-29T22:21:37.939Z,16.40
2022-12-29T22:24:10.280Z,15.35
2022-12-29T22:26:42.272Z,17.35
2022-12-29T22:29:14.162Z,17.95
2022-12-29T22:31:46.076Z,17.60
2022-12-29T22:34:18.446Z,16.55
2022-12-29T22:36:50.413Z,15.77
2022-12-29T22:39:22.363Z,18.35
2022-12-29T22:41:54.292Z,16.77
2022-12-29T22:44:26.281Z,18.08
2022-12-29T22:46:58.279Z,18.60
2022-12-29T22:49:30.315Z,20.95
2022-12-29T22:52:03.298Z,18.00
2022-12-29T22:54:35.256Z,17.05
2022-12-29T22:57:07.253Z,19.00
2022-12-29T22:59:40.448Z,19.77
2022-12-29T23:02:12.586Z,17.55
2022-12-29T23:05:02.953Z,21.02
2022-12-29T23:07:36.643Z,19.70
2022-12-29T23:10:08.833Z,17.48
2022-12-29T23:12:40.823Z,20.25
2022-12-29T23:15:12.851Z,20.25
2022-12-29T23:17:44.833Z,16.98
2022-12-29T23:20:16.798Z,15.68
2022-12-29T23:22:48.689Z,19.20
2022-12-29T23:25:20.564Z,18.70
2022-12-29T23:27:52.456Z,17.98
2022-12-29T23:30:24.430Z,20.50
2022-12-29T23:32:56.572Z,20.80
2022-12-29T23:35:28.623Z,18.80
2022-12-29T23:38:00.572Z,16.55
2022-12-29T23:40:32.510Z,17.17
2022-12-29T23:43:04.514Z,15.63
2022-12-29T23:45:37.932Z,17.40
2022-12-29T23:48:10.347Z,16.70
2022-12-29T23:50:43.157Z,18.30
2022-12-29T23:53:15.177Z,17.92
2022-12-29T23:55:53.695Z,17.48
2022-12-29T23:58:25.586Z,20.33
